createdAt,value
2019-03-27T00:00:38.364Z,88.53
2019-03-27T00:01:38.349Z,88.16
2019-03-27T00:02:38.376Z,88.37
2019-03-27T00:03:38.333Z,87.95
2019-03-27T00:04:38.315Z,88.16
2019-03-27T00:05:38.304Z,87.92
2019-03-27T00:06:38.294Z,88.12
2019-03-27T00:07:38.279Z,88.22
2019-03-27T00:08:38.295Z,88.02
2019-03-27T00:09:38.257Z,88.84
2019-03-27T00:10:38.249Z,88.74
2019-03-27T00:11:38.248Z,88.95
2019-03-27T00:12:38.225Z,88.95
2019-03-27T00:13:38.241Z,88.43
2019-03-27T00:14:38.199Z,88.95
2019-03-27T00:15:38.197Z,89.09
2019-03-27T00:16:38.184Z,89.15
2019-03-27T00:17:38.174Z,89.19
2019-03-27T00:18:38.179Z,89.05
2019-03-27T00:19:38.170Z,89.46
2019-03-27T00:20:38.145Z,88.78
2019-03-27T00:21:38.122Z,88.78
2019-03-27T00:22:38.121Z,89.09
2019-03-27T00:23:38.117Z,88.89
2019-03-27T00:24:38.123Z,89.61
2019-03-27T00:25:38.099Z,89.19
2019-03-27T00:26:38.072Z,89.50
2019-03-27T00:27:38.064Z,89.40
2019-03-27T00:28:38.062Z,89.29
2019-03-27T00:29:38.069Z,89.81
2019-03-27T00:30:38.038Z,89.40
2019-03-27T00:31:38.019Z,89.40
2019-03-27T00:32:38.010Z,89.81
2019-03-27T00:33:37.990Z,89.29
2019-03-27T00:34:37.986Z,88.98
2019-03-27T00:35:37.999Z,89.05
2019-03-27T00:36:37.978Z,88.68
2019-03-27T00:37:37.947Z,88.16
2019-03-27T00:38:37.944Z,88.12
2019-03-27T00:39:37.956Z,89.40
2019-03-27T00:40:37.958Z,89.29
2019-03-27T00:41:37.906Z,88.57
2019-03-27T00:42:37.890Z,88.02
2019-03-27T00:43:37.880Z,88.06
2019-03-27T00:44:37.872Z,88.37
2019-03-27T00:45:37.880Z,88.16
2019-03-27T00:46:37.883Z,88.16
2019-03-27T00:47:37.843Z,88.16
2019-03-27T00:48:37.833Z,87.74
2019-03-27T00:49:37.812Z,88.06
2019-03-27T00:50:37.805Z,87.65
2019-03-27T00:51:37.826Z,87.85
2019-03-27T00:52:37.807Z,87.85
2019-03-27T00:53:37.773Z,88.26
2019-03-27T00:54:37.765Z,88.16
2019-03-27T00:55:37.757Z,87.85
2019-03-27T00:56:37.771Z,87.74
2019-03-27T00:57:37.757Z,87.81
2019-03-27T00:58:37.721Z,87.65
2019-03-27T00:59:37.703Z,87.65
2019-03-27T01:00:37.698Z,87.34
2019-03-27T01:01:37.690Z,87.74
2019-03-27T01:02:37.710Z,87.95
2019-03-27T01:03:37.667Z,87.74
2019-03-27T01:04:37.656Z,87.65
2019-03-27T01:05:37.646Z,87.65
2019-03-27T01:06:37.626Z,87.44
2019-03-27T01:07:37.624Z,87.74
2019-03-27T01:08:37.635Z,87.95
2019-03-27T01:09:37.598Z,87.29
2019-03-27T01:10:37.583Z,86.88
2019-03-27T01:11:37.587Z,87.19
2019-03-27T01:12:37.564Z,86.98
2019-03-27T01:13:37.583Z,87.60
2019-03-27T01:14:37.545Z,87.08
2019-03-27T01:15:40.055Z,87.29
2019-03-27T01:16:37.517Z,87.19
2019-03-27T01:17:37.514Z,87.92
2019-03-27T01:18:37.502Z,87.85
2019-03-27T01:19:37.528Z,88.06
2019-03-27T01:20:37.486Z,88.16
2019-03-27T01:21:37.475Z,88.12
2019-03-27T01:22:37.458Z,88.02
2019-03-27T01:23:37.445Z,88.64
2019-03-27T01:24:37.469Z,88.89
2019-03-27T01:25:37.433Z,88.16
2019-03-27T01:26:37.410Z,88.47
2019-03-27T01:27:37.418Z,88.43
2019-03-27T01:28:37.387Z,88.06
2019-03-27T01:29:37.409Z,88.43
2019-03-27T01:30:37.412Z,88.16
2019-03-27T01:31:37.351Z,88.78
2019-03-27T01:32:37.347Z,89.05
2019-03-27T01:33:37.341Z,89.15
2019-03-27T01:34:37.326Z,88.95
2019-03-27T01:35:37.366Z,88.32
2019-03-27T01:36:37.299Z,88.43
2019-03-27T01:37:37.294Z,88.95
2019-03-27T01:38:37.274Z,88.53
2019-03-27T01:39:37.284Z,88.22
2019-03-27T01:40:37.302Z,88.68
2019-03-27T01:41:37.242Z,88.06
2019-03-27T01:42:37.275Z,88.37
2019-03-27T01:43:37.228Z,88.16
2019-03-27T01:44:37.211Z,89.40
2019-03-27T01:45:37.200Z,89.19
2019-03-27T01:46:37.226Z,88.98
2019-03-27T01:47:37.176Z,89.09
2019-03-27T01:48:37.193Z,89.19
2019-03-27T01:49:37.176Z,88.89
2019-03-27T01:50:37.156Z,89.19
2019-03-27T01:51:37.173Z,89.19
2019-03-27T01:52:37.170Z,88.26
2019-03-27T01:53:37.120Z,87.95
2019-03-27T01:54:37.134Z,88.06
2019-03-27T01:55:37.113Z,88.37
2019-03-27T01:56:37.154Z,88.02
2019-03-27T01:57:37.096Z,88.22
2019-03-27T01:58:37.059Z,87.95
2019-03-27T01:59:37.043Z,88.26
2019-03-27T02:00:37.085Z,88.26
2019-03-27T02:01:37.072Z,88.16
2019-03-27T02:02:37.038Z,88.57
2019-03-27T02:03:37.004Z,89.09
2019-03-27T02:04:37.014Z,88.89
2019-03-27T02:05:37.093Z,88.89
2019-03-27T02:06:37.017Z,88.98
2019-03-27T02:07:37.018Z,89.09
2019-03-27T02:08:37.022Z,88.98
2019-03-27T02:09:36.940Z,88.95
2019-03-27T02:10:36.928Z,89.50
2019-03-27T02:11:36.917Z,89.15
2019-03-27T02:12:36.915Z,89.09
2019-03-27T02:13:36.935Z,89.09
2019-03-27T02:14:36.912Z,89.29
2019-03-27T02:15:36.888Z,88.89
2019-03-27T02:16:36.881Z,89.09
2019-03-27T02:17:36.848Z,89.61
2019-03-27T02:18:36.893Z,89.71
2019-03-27T02:19:36.823Z,88.98
2019-03-27T02:20:36.810Z,88.98
2019-03-27T02:21:36.848Z,89.09
2019-03-27T02:22:36.818Z,89.09
2019-03-27T02:23:36.835Z,88.98
2019-03-27T02:24:36.823Z,88.98
2019-03-27T02:25:36.783Z,88.89
2019-03-27T02:26:36.788Z,89.71
2019-03-27T02:27:36.770Z,88.89
2019-03-27T02:28:36.754Z,89.29
2019-03-27T02:29:36.769Z,88.89
2019-03-27T02:30:36.727Z,88.06
2019-03-27T02:31:36.702Z,88.84
2019-03-27T02:32:36.686Z,88.47
2019-03-27T02:33:36.668Z,88.47
2019-03-27T02:34:36.706Z,89.29
2019-03-27T02:35:36.660Z,88.47
2019-03-27T02:36:36.635Z,88.89
2019-03-27T02:37:36.626Z,88.47
2019-03-27T02:38:36.625Z,88.78
2019-03-27T02:39:36.613Z,89.29
2019-03-27T02:40:36.620Z,88.89
2019-03-27T02:41:36.603Z,88.98
2019-03-27T02:42:36.567Z,88.26
2019-03-27T02:43:36.563Z,88.16
2019-03-27T02:44:36.552Z,88.26
2019-03-27T02:45:36.587Z,88.16
2019-03-27T02:46:36.533Z,88.37
2019-03-27T02:47:36.519Z,88.10
2019-03-27T02:48:36.508Z,88.20
2019-03-27T02:49:36.496Z,88.47
2019-03-27T02:50:36.482Z,88.47
2019-03-27T02:51:36.487Z,88.68
2019-03-27T02:52:36.480Z,87.95
2019-03-27T02:53:36.449Z,88.06
2019-03-27T02:54:36.445Z,88.26
2019-03-27T02:55:36.432Z,88.47
2019-03-27T02:56:36.444Z,87.85
2019-03-27T02:57:36.417Z,87.54
2019-03-27T02:58:36.398Z,87.44
2019-03-27T02:59:37.089Z,86.96
2019-03-27T03:00:36.396Z,87.99
2019-03-27T03:01:36.379Z,87.99
2019-03-27T03:02:36.397Z,87.89
2019-03-27T03:03:36.344Z,88.06
2019-03-27T03:04:36.330Z,88.06
2019-03-27T03:05:36.324Z,88.20
2019-03-27T03:06:36.324Z,88.10
2019-03-27T03:07:36.329Z,87.79
2019-03-27T03:08:36.292Z,88.20
2019-03-27T03:09:36.288Z,88.31
2019-03-27T03:10:36.271Z,88.51
2019-03-27T03:11:36.266Z,88.51
2019-03-27T03:12:36.275Z,87.99
2019-03-27T03:13:36.234Z,88.51
2019-03-27T03:14:36.219Z,88.31
2019-03-27T03:15:36.209Z,88.20
2019-03-27T03:16:42.699Z,88.20
2019-03-27T03:17:37.208Z,87.89
2019-03-27T03:18:36.215Z,88.20
2019-03-27T03:19:36.168Z,88.71
2019-03-27T03:20:36.163Z,88.16
2019-03-27T03:21:36.166Z,88.06
2019-03-27T03:22:36.131Z,88.47
2019-03-27T03:23:36.151Z,87.95
2019-03-27T03:24:36.120Z,88.47
2019-03-27T03:25:36.099Z,87.74
2019-03-27T03:26:36.097Z,87.74
2019-03-27T03:27:36.086Z,87.23
2019-03-27T03:28:36.103Z,86.92
2019-03-27T03:29:36.064Z,87.23
2019-03-27T03:30:36.090Z,87.13
2019-03-27T03:31:36.038Z,88.16
2019-03-27T03:32:36.035Z,87.65
2019-03-27T03:33:36.045Z,87.85
2019-03-27T03:34:36.015Z,88.16
2019-03-27T03:35:36.017Z,87.95
2019-03-27T03:36:35.986Z,87.65
2019-03-27T03:37:35.969Z,87.44
2019-03-27T03:38:36.007Z,87.54
2019-03-27T03:39:35.951Z,87.02
2019-03-27T03:40:35.950Z,87.54
2019-03-27T03:41:35.928Z,86.92
2019-03-27T03:42:35.923Z,87.23
2019-03-27T03:43:35.906Z,87.13
2019-03-27T03:44:35.934Z,87.34
2019-03-27T03:45:35.904Z,87.34
2019-03-27T03:46:35.870Z,87.68
2019-03-27T03:47:35.992Z,88.20
2019-03-27T03:48:35.848Z,87.68
2019-03-27T03:49:35.873Z,87.99
2019-03-27T03:50:35.842Z,87.99
2019-03-27T03:51:35.842Z,87.89
2019-03-27T03:52:35.806Z,87.89
2019-03-27T03:53:35.799Z,87.65
2019-03-27T03:54:35.783Z,87.74
2019-03-27T03:55:35.804Z,87.02
2019-03-27T03:56:35.773Z,86.82
2019-03-27T03:57:35.776Z,87.02
2019-03-27T03:58:35.751Z,87.02
2019-03-27T03:59:35.745Z,87.02
2019-03-27T04:00:35.757Z,86.71
2019-03-27T04:01:35.711Z,86.82
2019-03-27T04:02:35.702Z,86.82
2019-03-27T04:03:35.698Z,87.23
2019-03-27T04:04:35.681Z,86.71
2019-03-27T04:05:35.694Z,86.92
2019-03-27T04:06:35.682Z,87.58
2019-03-27T04:07:35.685Z,87.17
2019-03-27T04:08:35.640Z,87.58
2019-03-27T04:09:35.638Z,87.99
2019-03-27T04:10:35.616Z,88.31
2019-03-27T04:11:35.649Z,88.41
2019-03-27T04:12:35.614Z,87.89
2019-03-27T04:13:35.601Z,87.99
2019-03-27T04:14:35.592Z,88.51
2019-03-27T04:15:35.577Z,87.68
2019-03-27T04:16:35.591Z,88.10
2019-03-27T04:17:35.555Z,88.51
2019-03-27T04:18:35.537Z,88.04
2019-03-27T04:19:35.509Z,87.99
2019-03-27T04:20:35.540Z,88.31
2019-03-27T04:21:35.496Z,88.20
2019-03-27T04:22:35.526Z,88.61
2019-03-27T04:23:35.468Z,88.20
2019-03-27T04:24:35.469Z,88.10
2019-03-27T04:26:00.342Z,88.31
2019-03-27T04:26:36.436Z,88.10
2019-03-27T04:27:35.443Z,88.57
2019-03-27T04:28:35.488Z,89.03
2019-03-27T04:29:35.406Z,89.34
2019-03-27T04:30:35.439Z,89.23
2019-03-27T04:31:35.391Z,89.19
2019-03-27T04:32:35.391Z,89.34
2019-03-27T04:33:35.396Z,89.23
2019-03-27T04:34:35.353Z,88.82
2019-03-27T04:35:35.359Z,89.13
2019-03-27T04:36:35.337Z,89.23
2019-03-27T04:37:35.321Z,88.92
2019-03-27T04:38:35.331Z,89.34
2019-03-27T04:39:35.314Z,89.44
2019-03-27T04:40:35.285Z,89.23
2019-03-27T04:41:35.275Z,89.75
2019-03-27T04:42:35.268Z,89.95
2019-03-27T04:43:35.259Z,89.44
2019-03-27T04:44:35.268Z,89.54
2019-03-27T04:45:35.242Z,89.50
2019-03-27T04:46:35.223Z,89.86
2019-03-27T04:47:35.208Z,89.03
2019-03-27T04:48:35.207Z,89.03
2019-03-27T04:49:35.196Z,88.92
2019-03-27T04:50:35.208Z,89.75
2019-03-27T04:51:35.167Z,89.40
2019-03-27T04:52:35.151Z,89.65
2019-03-27T04:53:35.143Z,90.06
2019-03-27T04:54:35.129Z,90.02
2019-03-27T04:55:35.169Z,89.92
2019-03-27T04:56:35.112Z,90.02
2019-03-27T04:57:35.117Z,90.02
2019-03-27T04:58:35.108Z,89.40
2019-03-27T04:59:35.074Z,89.40
2019-03-27T05:00:35.065Z,89.09
2019-03-27T05:01:35.079Z,88.89
2019-03-27T05:02:35.055Z,88.98
2019-03-27T05:03:35.031Z,88.98
2019-03-27T05:04:35.027Z,88.98
2019-03-27T05:05:35.023Z,89.71
2019-03-27T05:06:35.034Z,89.29
2019-03-27T05:07:34.990Z,89.71
2019-03-27T05:08:34.995Z,89.81
2019-03-27T05:09:34.965Z,89.71
2019-03-27T05:10:34.961Z,89.61
2019-03-27T05:11:34.985Z,89.29
2019-03-27T05:12:38.342Z,88.98
2019-03-27T05:13:34.931Z,89.09
2019-03-27T05:14:34.919Z,89.29
2019-03-27T05:15:34.900Z,88.98
2019-03-27T05:16:34.907Z,88.89
2019-03-27T05:17:45.057Z,89.19
2019-03-27T05:18:35.867Z,88.68
2019-03-27T05:19:34.860Z,88.16
2019-03-27T05:20:34.893Z,88.89
2019-03-27T05:21:34.841Z,88.26
2019-03-27T05:22:34.861Z,88.16
2019-03-27T05:23:34.813Z,88.37
2019-03-27T05:24:34.804Z,87.85
2019-03-27T05:25:34.793Z,88.37
2019-03-27T05:26:34.789Z,89.09
2019-03-27T05:27:36.307Z,89.36
2019-03-27T05:28:34.815Z,88.53
2019-03-27T05:29:34.763Z,87.95
2019-03-27T05:30:34.740Z,88.16
2019-03-27T05:31:34.727Z,88.16
2019-03-27T05:32:34.716Z,88.16
2019-03-27T05:33:34.737Z,88.06
2019-03-27T05:34:34.691Z,88.02
2019-03-27T05:35:34.683Z,88.06
2019-03-27T05:36:34.671Z,88.06
2019-03-27T05:37:34.660Z,88.16
2019-03-27T05:38:34.670Z,87.65
2019-03-27T05:39:34.666Z,87.74
2019-03-27T05:40:34.625Z,88.06
2019-03-27T05:41:34.615Z,87.99
2019-03-27T05:42:34.606Z,87.65
2019-03-27T05:43:34.591Z,87.65
2019-03-27T05:44:34.616Z,87.85
2019-03-27T05:45:34.586Z,87.95
2019-03-27T05:46:34.570Z,88.37
2019-03-27T05:47:34.559Z,88.26
2019-03-27T05:48:34.541Z,88.26
2019-03-27T05:49:34.531Z,88.41
2019-03-27T05:50:34.539Z,87.95
2019-03-27T05:51:34.506Z,87.74
2019-03-27T05:52:34.499Z,87.85
2019-03-27T05:53:34.518Z,88.06
2019-03-27T05:54:34.477Z,87.74
2019-03-27T05:55:34.503Z,88.37
2019-03-27T05:56:34.456Z,87.85
2019-03-27T05:57:34.440Z,87.95
2019-03-27T05:58:34.435Z,88.06
2019-03-27T05:59:34.433Z,87.79
2019-03-27T06:00:34.409Z,87.74
2019-03-27T06:01:34.422Z,87.95
2019-03-27T06:02:34.397Z,88.06
2019-03-27T06:03:34.376Z,88.37
2019-03-27T06:04:34.370Z,88.16
2019-03-27T06:05:34.354Z,88.26
2019-03-27T06:06:34.376Z,87.65
2019-03-27T06:07:34.333Z,87.85
2019-03-27T06:08:34.342Z,87.74
2019-03-27T06:09:34.309Z,88.12
2019-03-27T06:10:34.301Z,87.13
2019-03-27T06:11:34.305Z,86.61
2019-03-27T06:12:34.302Z,86.61
2019-03-27T06:13:34.270Z,86.10
2019-03-27T06:14:34.256Z,86.10
2019-03-27T06:15:34.264Z,86.71
2019-03-27T06:16:34.241Z,86.68
2019-03-27T06:17:34.263Z,86.20
2019-03-27T06:18:34.213Z,86.61
2019-03-27T06:19:34.208Z,87.02
2019-03-27T06:20:34.968Z,86.71
2019-03-27T06:21:34.179Z,86.71
2019-03-27T06:22:34.171Z,86.57
2019-03-27T06:23:34.181Z,86.68
2019-03-27T06:24:34.150Z,86.26
2019-03-27T06:25:34.153Z,86.36
2019-03-27T06:26:34.123Z,86.26
2019-03-27T06:27:34.114Z,86.36
2019-03-27T06:28:34.150Z,85.64
2019-03-27T06:29:34.091Z,86.16
2019-03-27T06:30:34.085Z,85.64
2019-03-27T06:31:34.083Z,85.54
2019-03-27T06:32:34.071Z,84.81
2019-03-27T06:33:34.055Z,84.81
2019-03-27T06:34:34.055Z,86.05
2019-03-27T06:35:34.027Z,86.32
2019-03-27T06:36:34.017Z,86.32
2019-03-27T06:37:34.026Z,85.60
2019-03-27T06:38:33.996Z,84.88
2019-03-27T06:39:34.011Z,85.30
2019-03-27T06:40:33.970Z,85.39
2019-03-27T06:41:33.967Z,86.22
2019-03-27T06:42:33.945Z,85.71
2019-03-27T06:43:33.961Z,86.32
2019-03-27T06:44:33.957Z,86.32
2019-03-27T06:45:33.916Z,85.81
2019-03-27T06:46:33.919Z,86.05
2019-03-27T06:47:33.917Z,85.71
2019-03-27T06:48:33.882Z,85.71
2019-03-27T06:49:33.873Z,84.47
2019-03-27T06:50:33.878Z,84.99
2019-03-27T06:51:40.050Z,84.57
2019-03-27T06:52:34.844Z,84.67
2019-03-27T06:53:33.852Z,84.27
2019-03-27T06:54:33.814Z,84.16
2019-03-27T06:55:33.843Z,84.16
2019-03-27T06:56:33.808Z,84.36
2019-03-27T06:57:33.790Z,84.78
2019-03-27T06:58:33.770Z,84.47
2019-03-27T06:59:33.761Z,84.06
2019-03-27T07:00:33.782Z,84.57
2019-03-27T07:01:33.745Z,83.23
2019-03-27T07:02:33.746Z,84.06
2019-03-27T07:03:33.746Z,84.67
2019-03-27T07:04:33.702Z,84.67
2019-03-27T07:05:33.701Z,84.67
2019-03-27T07:06:33.688Z,84.88
2019-03-27T07:07:33.727Z,84.88
2019-03-27T07:08:33.661Z,84.78
2019-03-27T07:09:33.668Z,84.06
2019-03-27T07:10:33.655Z,84.67
2019-03-27T07:11:33.634Z,84.47
2019-03-27T07:12:33.620Z,84.88
2019-03-27T07:13:33.610Z,84.78
2019-03-27T07:14:33.630Z,84.64
2019-03-27T07:15:35.766Z,84.64
2019-03-27T07:16:33.576Z,83.61
2019-03-27T07:17:33.561Z,83.19
2019-03-27T07:18:39.930Z,82.26
2019-03-27T07:19:34.568Z,82.26
2019-03-27T07:20:33.541Z,82.82
2019-03-27T07:21:33.524Z,84.12
2019-03-27T07:22:33.508Z,83.13
2019-03-27T07:23:33.504Z,83.81
2019-03-27T07:24:33.504Z,83.09
2019-03-27T07:25:33.520Z,83.40
2019-03-27T07:26:33.463Z,84.12
2019-03-27T07:27:33.454Z,82.68
2019-03-27T07:28:33.439Z,82.78
2019-03-27T07:29:33.475Z,82.47
2019-03-27T07:30:33.420Z,83.09
2019-03-27T07:31:33.410Z,83.71
2019-03-27T07:32:33.396Z,83.50
2019-03-27T07:33:33.391Z,82.57
2019-03-27T07:34:33.407Z,82.68
2019-03-27T07:35:33.389Z,82.30
2019-03-27T07:36:33.367Z,82.26
2019-03-27T07:37:33.345Z,83.33
2019-03-27T07:38:33.334Z,83.19
2019-03-27T07:39:33.378Z,83.09
2019-03-27T07:40:33.310Z,83.09
2019-03-27T07:41:33.302Z,82.78
2019-03-27T07:42:33.293Z,82.26
2019-03-27T07:43:33.296Z,83.29
2019-03-27T07:44:33.265Z,83.09
2019-03-27T07:45:33.272Z,82.89
2019-03-27T07:46:33.245Z,82.89
2019-03-27T07:47:33.230Z,82.68
2019-03-27T07:48:33.222Z,82.33
2019-03-27T07:49:33.209Z,83.26
2019-03-27T07:50:33.235Z,81.75
2019-03-27T07:51:33.188Z,82.54
2019-03-27T07:52:33.174Z,82.02
2019-03-27T07:53:33.161Z,82.54
2019-03-27T07:54:33.151Z,82.02
2019-03-27T07:55:33.148Z,82.23
2019-03-27T07:56:33.152Z,81.51
2019-03-27T07:57:33.121Z,80.89
2019-03-27T07:58:33.120Z,80.79
2019-03-27T07:59:33.100Z,81.09
2019-03-27T08:00:33.086Z,81.40
2019-03-27T08:01:33.131Z,80.93
2019-03-27T08:02:33.072Z,81.23
2019-03-27T08:03:33.053Z,81.03
2019-03-27T08:04:33.042Z,80.41
2019-03-27T08:05:33.030Z,80.82
2019-03-27T08:06:33.026Z,81.13
2019-03-27T08:07:33.042Z,81.03
2019-03-27T08:08:33.002Z,81.23
2019-03-27T08:09:32.998Z,81.03
2019-03-27T08:10:32.976Z,80.82
2019-03-27T08:11:33.005Z,81.54
2019-03-27T08:12:32.996Z,81.03
2019-03-27T08:13:32.943Z,81.09
2019-03-27T08:14:32.931Z,81.51
2019-03-27T08:15:32.953Z,82.12
2019-03-27T08:16:32.918Z,82.43
2019-03-27T08:17:32.900Z,82.23
2019-03-27T08:18:32.903Z,81.51
2019-03-27T08:19:32.876Z,81.71
2019-03-27T08:20:32.863Z,80.85
2019-03-27T08:21:32.865Z,80.47
2019-03-27T08:22:32.862Z,80.16
2019-03-27T08:23:32.865Z,80.58
2019-03-27T08:24:32.847Z,80.58
2019-03-27T08:25:32.814Z,81.30
2019-03-27T08:26:32.797Z,81.30
2019-03-27T08:27:32.818Z,80.89
2019-03-27T08:28:32.809Z,81.30
2019-03-27T08:29:32.772Z,79.72
2019-03-27T08:30:32.772Z,80.27
2019-03-27T08:31:32.745Z,79.65
2019-03-27T08:32:32.737Z,79.34
2019-03-27T08:33:32.772Z,79.20
2019-03-27T08:34:32.739Z,79.10
2019-03-27T08:35:32.700Z,78.69
2019-03-27T08:36:32.693Z,79.20
2019-03-27T08:37:32.676Z,79.10
2019-03-27T08:38:32.665Z,78.75
2019-03-27T08:39:32.685Z,78.79
2019-03-27T08:40:32.667Z,78.69
2019-03-27T08:41:32.660Z,78.65
2019-03-27T08:42:32.639Z,78.14
2019-03-27T08:43:32.635Z,78.03
2019-03-27T08:44:32.670Z,77.93
2019-03-27T08:45:32.590Z,77.86
2019-03-27T08:46:32.582Z,77.11
2019-03-27T08:47:32.568Z,76.90
2019-03-27T08:48:32.568Z,77.55
2019-03-27T08:49:32.547Z,76.42
2019-03-27T08:50:32.575Z,77.21
2019-03-27T08:51:32.529Z,77.51
2019-03-27T08:52:32.515Z,76.11
2019-03-27T08:53:32.511Z,77.42
2019-03-27T08:54:32.520Z,77.76
2019-03-27T08:55:32.546Z,77.42
2019-03-27T08:56:32.474Z,76.97
2019-03-27T08:57:32.457Z,78.00
2019-03-27T08:58:32.460Z,77.58
2019-03-27T08:59:32.439Z,77.58
2019-03-27T09:00:32.461Z,77.65
2019-03-27T09:01:32.422Z,77.86
2019-03-27T09:02:32.430Z,76.62
2019-03-27T09:03:32.392Z,74.87
2019-03-27T09:04:32.385Z,75.59
2019-03-27T09:05:32.397Z,76.01
2019-03-27T09:06:33.996Z,76.62
2019-03-27T09:07:32.354Z,76.01
2019-03-27T09:08:32.371Z,75.90
2019-03-27T09:09:32.336Z,74.77
2019-03-27T09:10:32.344Z,75.76
2019-03-27T09:11:32.342Z,74.46
2019-03-27T09:12:32.379Z,74.36
2019-03-27T09:13:32.297Z,74.26
2019-03-27T09:14:32.272Z,76.31
2019-03-27T09:15:32.300Z,75.80
2019-03-27T09:16:32.254Z,75.80
2019-03-27T09:17:32.242Z,75.18
2019-03-27T09:18:32.229Z,75.18
2019-03-27T09:19:35.947Z,74.57
2019-03-27T09:20:32.250Z,74.33
2019-03-27T09:21:32.200Z,73.71
2019-03-27T09:22:32.198Z,75.87
2019-03-27T09:23:32.197Z,75.87
2019-03-27T09:24:32.168Z,75.97
2019-03-27T09:25:32.169Z,74.53
2019-03-27T09:26:32.139Z,74.12
2019-03-27T09:27:32.133Z,73.95
2019-03-27T09:28:32.160Z,74.98
2019-03-27T09:29:32.117Z,74.43
2019-03-27T09:30:32.134Z,74.84
2019-03-27T09:31:44.164Z,74.02
2019-03-27T09:32:33.073Z,73.40
2019-03-27T09:33:32.066Z,73.47
2019-03-27T09:34:32.057Z,72.78
2019-03-27T09:35:32.161Z,73.36
2019-03-27T09:36:32.064Z,73.27
2019-03-27T09:37:32.020Z,73.27
2019-03-27T09:38:32.046Z,73.36
2019-03-27T09:39:32.011Z,72.92
2019-03-27T09:40:31.988Z,72.51
2019-03-27T09:41:32.048Z,73.33
2019-03-27T09:42:31.966Z,73.57
2019-03-27T09:43:31.969Z,72.85
2019-03-27T09:44:31.952Z,72.20
2019-03-27T09:45:31.939Z,73.85
2019-03-27T09:46:31.927Z,73.44
2019-03-27T09:47:34.684Z,73.44
2019-03-27T09:48:31.900Z,73.81
2019-03-27T09:49:31.890Z,73.30
2019-03-27T09:50:31.890Z,73.27
2019-03-27T09:51:31.885Z,71.55
2019-03-27T09:52:31.886Z,72.75
2019-03-27T09:53:31.849Z,72.24
2019-03-27T09:54:31.847Z,72.14
2019-03-27T09:55:31.824Z,70.80
2019-03-27T09:56:31.841Z,70.90
2019-03-27T09:57:31.826Z,71.52
2019-03-27T09:58:31.790Z,71.62
2019-03-27T09:59:31.780Z,71.72
2019-03-27T10:00:31.772Z,71.35
2019-03-27T10:01:31.756Z,71.72
2019-03-27T10:02:31.774Z,71.11
2019-03-27T10:03:31.748Z,70.08
2019-03-27T10:04:31.738Z,70.18
2019-03-27T10:05:31.740Z,70.60
2019-03-27T10:06:31.706Z,69.98
2019-03-27T10:07:31.697Z,69.95
2019-03-27T10:08:31.685Z,70.36
2019-03-27T10:09:31.840Z,70.77
2019-03-27T10:10:31.695Z,72.61
2019-03-27T10:11:31.681Z,72.00
2019-03-27T10:12:31.664Z,70.26
2019-03-27T10:13:31.629Z,69.64
2019-03-27T10:14:31.618Z,71.28
2019-03-27T10:15:31.619Z,70.67
2019-03-27T10:16:31.635Z,70.26
2019-03-27T10:17:31.586Z,70.05
2019-03-27T10:18:31.581Z,69.02
2019-03-27T10:19:31.564Z,69.02
2019-03-27T10:20:31.550Z,69.64
2019-03-27T10:21:32.777Z,70.46
2019-03-27T10:22:31.603Z,70.15
2019-03-27T10:23:31.520Z,69.95
2019-03-27T10:24:31.514Z,70.77
2019-03-27T10:25:31.523Z,70.36
2019-03-27T10:26:31.493Z,70.94
2019-03-27T10:27:31.614Z,71.59
2019-03-27T10:28:31.463Z,70.43
2019-03-27T10:29:31.557Z,69.20
2019-03-27T10:30:31.477Z,69.51
2019-03-27T10:31:31.433Z,68.76
2019-03-27T10:32:31.424Z,69.30
2019-03-27T10:33:31.431Z,68.99
2019-03-27T10:34:31.442Z,70.32
2019-03-27T10:35:31.482Z,69.47
2019-03-27T10:36:31.420Z,69.20
2019-03-27T10:37:31.371Z,69.81
2019-03-27T10:38:31.354Z,69.27
2019-03-27T10:39:31.362Z,68.48
2019-03-27T10:40:31.342Z,70.94
2019-03-27T10:41:31.355Z,69.57
2019-03-27T10:42:31.314Z,69.89
2019-03-27T10:43:31.302Z,69.47
2019-03-27T10:44:31.298Z,69.37
2019-03-27T10:45:31.348Z,69.17
2019-03-27T10:46:31.271Z,69.03
2019-03-27T10:47:31.301Z,69.24
2019-03-27T10:48:31.250Z,69.13
2019-03-27T10:49:34.226Z,67.80
2019-03-27T10:50:31.254Z,67.70
2019-03-27T10:51:31.212Z,68.32
2019-03-27T10:52:31.207Z,68.65
2019-03-27T10:53:31.197Z,68.86
2019-03-27T10:54:31.204Z,69.06
2019-03-27T10:55:34.374Z,69.68
2019-03-27T10:56:31.176Z,69.57
2019-03-27T10:57:31.175Z,69.44
2019-03-27T10:58:31.182Z,69.44
2019-03-27T10:59:31.142Z,69.27
2019-03-27T11:00:31.165Z,68.83
2019-03-27T11:01:31.108Z,67.40
2019-03-27T11:02:31.105Z,67.77
2019-03-27T11:03:31.093Z,68.38
2019-03-27T11:04:31.072Z,69.13
2019-03-27T11:05:31.136Z,69.13
2019-03-27T11:06:31.057Z,68.08
2019-03-27T11:07:31.056Z,68.18
2019-03-27T11:08:31.054Z,66.34
2019-03-27T11:09:31.030Z,65.90
2019-03-27T11:10:31.084Z,67.13
2019-03-27T11:11:31.010Z,66.92
2019-03-27T11:12:31.011Z,65.80
2019-03-27T11:13:34.178Z,65.80
2019-03-27T11:14:37.875Z,67.30
2019-03-27T11:15:31.997Z,66.07
2019-03-27T11:16:31.005Z,65.18
2019-03-27T11:17:30.969Z,64.98
2019-03-27T11:18:30.943Z,65.90
2019-03-27T11:19:33.398Z,66.78
2019-03-27T11:20:31.714Z,66.00
2019-03-27T11:21:30.906Z,67.43
2019-03-27T11:22:30.885Z,65.28
2019-03-27T11:23:30.862Z,65.42
2019-03-27T11:24:30.855Z,65.31
2019-03-27T11:25:33.053Z,65.86
2019-03-27T11:26:30.853Z,65.86
2019-03-27T11:27:30.820Z,65.86
2019-03-27T11:28:30.814Z,67.60
2019-03-27T11:29:30.802Z,66.67
2019-03-27T11:30:30.797Z,66.98
2019-03-27T11:31:30.841Z,66.47
2019-03-27T11:32:30.771Z,67.63
2019-03-27T11:33:30.760Z,66.81
2019-03-27T11:34:30.746Z,67.22
2019-03-27T11:35:30.742Z,67.76
2019-03-27T11:36:30.746Z,68.04
2019-03-27T11:37:30.740Z,68.24
2019-03-27T11:38:30.699Z,67.43
2019-03-27T11:39:30.693Z,67.73
2019-03-27T11:40:30.699Z,67.83
2019-03-27T11:41:30.668Z,68.65
2019-03-27T11:42:30.790Z,67.90
2019-03-27T11:43:30.654Z,68.01
2019-03-27T11:44:30.644Z,67.29
2019-03-27T11:45:30.632Z,67.67
2019-03-27T11:46:32.258Z,66.64
2019-03-27T11:47:30.606Z,66.85
2019-03-27T11:48:30.611Z,66.75
2019-03-27T11:49:30.603Z,66.44
2019-03-27T11:50:43.754Z,67.36
2019-03-27T11:51:31.574Z,66.75
2019-03-27T11:52:30.549Z,65.62
2019-03-27T11:53:30.541Z,66.24
2019-03-27T11:54:30.542Z,64.90
2019-03-27T11:55:30.523Z,66.75
2019-03-27T11:56:30.546Z,66.95
2019-03-27T11:57:30.495Z,66.95
2019-03-27T11:58:30.495Z,67.87
2019-03-27T11:59:30.475Z,67.43
2019-03-27T12:00:30.462Z,67.43
2019-03-27T12:01:40.466Z,67.13
2019-03-27T12:02:31.522Z,64.77
2019-03-27T12:03:30.461Z,66.69
2019-03-27T12:04:30.421Z,65.46
2019-03-27T12:05:30.406Z,67.43
2019-03-27T12:06:30.417Z,66.41
2019-03-27T12:07:30.407Z,67.23
2019-03-27T12:08:30.384Z,65.80
2019-03-27T12:09:30.388Z,66.54
2019-03-27T12:10:30.370Z,67.46
2019-03-27T12:11:30.373Z,66.95
2019-03-27T12:12:30.347Z,66.44
2019-03-27T12:13:30.329Z,66.20
2019-03-27T12:14:30.308Z,65.59
2019-03-27T12:15:30.313Z,66.31
2019-03-27T12:16:30.304Z,66.41
2019-03-27T12:17:30.288Z,66.72
2019-03-27T12:18:32.098Z,67.23
2019-03-27T12:19:30.271Z,66.72
2019-03-27T12:20:30.273Z,65.59
2019-03-27T12:21:30.307Z,65.28
2019-03-27T12:22:30.273Z,65.25
2019-03-27T12:23:30.226Z,65.18
2019-03-27T12:24:30.207Z,64.47
2019-03-27T12:25:30.198Z,64.77
2019-03-27T12:26:30.229Z,65.18
2019-03-27T12:27:30.178Z,66.61
2019-03-27T12:28:30.214Z,66.31
2019-03-27T12:29:30.169Z,66.31
2019-03-27T12:30:30.152Z,65.90
2019-03-27T12:31:30.173Z,64.87
2019-03-27T12:32:30.121Z,66.00
2019-03-27T12:33:30.109Z,65.69
2019-03-27T12:34:30.090Z,66.00
2019-03-27T12:35:30.095Z,65.69
2019-03-27T12:36:30.111Z,66.31
2019-03-27T12:37:30.091Z,65.77
2019-03-27T12:38:30.055Z,66.48
2019-03-27T12:39:30.034Z,65.97
2019-03-27T12:40:30.033Z,65.77
2019-03-27T12:41:32.873Z,65.46
2019-03-27T12:42:30.051Z,64.95
2019-03-27T12:43:30.044Z,65.15
2019-03-27T12:44:30.003Z,66.58
2019-03-27T12:45:29.976Z,67.30
2019-03-27T12:46:29.973Z,66.69
2019-03-27T12:47:29.961Z,66.69
2019-03-27T12:48:29.994Z,65.56
2019-03-27T12:49:29.949Z,65.15
2019-03-27T12:50:29.926Z,65.87
2019-03-27T12:51:29.923Z,65.25
2019-03-27T12:52:29.889Z,65.36